Riyadh, Saudi Arabia

11:25 AM AST on September 04, 2015 (GMT +0300)
Al Nakhil | | Change Station
CLOSE
Current Station
Personal Weather Station
Location: Riyadh, RIYADH PROVINCE
Elevation: 2198 ft
Nearby Weather Stations

Elev 2198 ft 24.74 °N, 46.61 °E | Updated 7 seconds ago

Clear
Clear
100.2 °F
Feels Like 95 °F
N
4.3
Wind Variable Wind from NW
Gusts 6.0 mph

Today
High -- | Low -- °F
--% Chance of Precip.
Yesterday
High -- | Low -- °F
Precip. -- in
5:35 AM 6:09 PM
Waning Gibbous, 62% visible
Pressure 29.86 in
Visibility -9999.0 miles
Clouds
Heat Index 95 °F
Dew Point 28 °F
Humidity 8%
Rainfall 0.00 in
Snow Depth Not available.
UV Not available.
Pollen Not available.
Air Quality Not available.
Flu Activity Not available.
METAR OERK 040800Z 36008KT CAVOK 39/M01 Q1011 NOSIG
Pressure 29.86 in
Visibility -9999.0 miles
Clouds
Heat Index 95 °F
Dew Point 28 °F
Humidity 8%
Rainfall 0.00 in
Snow Depth Not available.
UV Not available.
Pollen Not available.
Air Quality Not available.
Flu Activity Not available.
METAR OERK 040800Z 36008KT CAVOK 39/M01 Q1011 NOSIG

10-Day Weather Forecast

×

Almanac

Astronomy

Sep. 04, 2015 Rise Set
Actual Time
Civil Twilight
Nautical Twilight
Astronomical Twilight
Moon
Length of Visible Light
Length of Day
Tomorrow will be .
, % of the Moon is Illuminated

Today's Extremes

Country Highs Country Lows

Community

WunderPhotos

Upload Photos

1,852,141 photos uploaded!

WunderBlogs® & News

Nearby

Air Quality

  Air Quality AQ Index Pollutant
Not available.

Snow Depth

Station Depth Elevation

Earthquake Activity

City Distance Mag. Time & Date
Minimum magnitude displayed is 2.5.

Coastal Water Temperatures

Place Temperature

Stations

Nearby Weather Stations

Station Location Temp. Windchill Dew Point Humidity Wind Precip. Elev Updated Type